createdAt,value
2018-04-20T00:02:03.619Z,61.30
2018-04-20T00:04:31.897Z,61.20
2018-04-20T00:07:00.165Z,61.70
2018-04-20T00:09:28.435Z,61.10
2018-04-20T00:11:55.946Z,61.00
2018-04-20T00:14:23.437Z,62.00
2018-04-20T00:16:50.945Z,62.60
2018-04-20T00:19:18.454Z,62.10
2018-04-20T00:21:45.953Z,62.50
2018-04-20T00:24:13.457Z,62.60
2018-04-20T00:26:40.954Z,62.20
2018-04-20T00:29:09.237Z,62.50
2018-04-20T00:31:37.510Z,62.40
2018-04-20T00:34:05.766Z,62.30
2018-04-20T00:36:33.261Z,62.30
2018-04-20T00:39:00.787Z,62.90
2018-04-20T00:41:28.289Z,63.40
2018-04-20T00:43:55.790Z,63.30
2018-04-20T00:46:23.286Z,63.00
2018-04-20T00:48:51.557Z,62.80
2018-04-20T00:51:19.830Z,63.20
2018-04-20T00:54:00.213Z,62.90
2018-04-20T00:56:27.754Z,62.90
2018-04-20T00:58:56.022Z,63.60
2018-04-20T01:01:24.306Z,63.20
2018-04-20T01:03:52.615Z,63.30
2018-04-20T01:06:20.116Z,63.30
2018-04-20T01:08:47.630Z,64.20
2018-04-20T01:11:15.148Z,63.40
2018-04-20T01:13:43.425Z,64.60
2018-04-20T01:16:11.713Z,64.40
2018-04-20T01:18:39.974Z,64.30
2018-04-20T01:21:07.474Z,64.30
2018-04-20T01:23:34.986Z,64.30
2018-04-20T01:26:02.492Z,64.70
2018-04-20T01:28:29.986Z,64.60
2018-04-20T01:30:57.480Z,65.50
2018-04-20T01:33:25.746Z,65.20
2018-04-20T01:35:54.025Z,65.10
2018-04-20T01:38:22.319Z,65.50
2018-04-20T01:40:49.821Z,65.50
2018-04-20T01:43:17.333Z,64.90
2018-04-20T01:45:45.598Z,65.40
2018-04-20T01:48:13.869Z,64.60
2018-04-20T01:50:42.170Z,65.70
2018-04-20T01:53:09.702Z,65.70
2018-04-20T01:55:37.249Z,66.60
2018-04-20T01:58:04.726Z,66.00
2018-04-20T02:00:32.997Z,65.80
2018-04-20T02:03:01.278Z,65.60
2018-04-20T02:05:28.805Z,65.50
2018-04-20T02:07:56.322Z,65.40
2018-04-20T02:10:23.842Z,65.40
2018-04-20T02:12:52.862Z,66.40
2018-04-20T02:15:21.126Z,66.20
2018-04-20T02:17:49.397Z,66.20
2018-04-20T02:20:17.690Z,65.80
2018-04-20T02:22:45.957Z,66.00
2018-04-20T02:25:14.256Z,66.70
2018-04-20T02:27:41.757Z,66.60
2018-04-20T02:30:09.271Z,66.30
2018-04-20T02:32:36.785Z,66.60
2018-04-20T02:35:04.381Z,67.10
2018-04-20T02:37:31.897Z,66.90
2018-04-20T02:39:59.415Z,66.60
2018-04-20T02:42:26.913Z,66.50
2018-04-20T02:44:54.419Z,66.90
2018-04-20T02:47:21.932Z,66.20
2018-04-20T02:49:49.454Z,66.10
2018-04-20T02:52:17.015Z,66.80
2018-04-20T02:54:44.519Z,68.30
2018-04-20T02:57:12.020Z,68.10
2018-04-20T02:59:39.529Z,68.30
2018-04-20T03:02:07.021Z,69.40
2018-04-20T03:04:35.289Z,70.00
2018-04-20T03:07:03.565Z,69.70
2018-04-20T03:09:31.841Z,69.30
2018-04-20T03:12:00.134Z,69.50
2018-04-20T03:14:27.644Z,68.60
2018-04-20T03:16:55.174Z,68.10
2018-04-20T03:19:22.666Z,68.10
2018-04-20T03:21:50.162Z,68.10
2018-04-20T03:24:18.431Z,67.70
2018-04-20T03:26:46.697Z,67.70
2018-04-20T03:29:14.209Z,67.60
2018-04-20T03:31:41.722Z,68.00
2018-04-20T03:34:09.997Z,68.10
2018-04-20T03:36:38.262Z,68.30
2018-04-20T03:39:05.781Z,68.30
2018-04-20T03:41:33.305Z,69.30
2018-04-20T03:44:01.571Z,69.10
2018-04-20T03:46:29.854Z,69.50
2018-04-20T03:48:58.139Z,69.10
2018-04-20T03:51:25.658Z,69.00
2018-04-20T03:53:53.173Z,68.80
2018-04-20T03:56:20.731Z,68.70
2018-04-20T03:58:48.970Z,69.70
2018-04-20T04:01:17.253Z,69.00
2018-04-20T04:03:45.526Z,68.90
2018-04-20T04:06:13.800Z,69.30
2018-04-20T04:08:42.069Z,68.80
2018-04-20T04:11:10.357Z,69.30
2018-04-20T04:13:38.641Z,69.30
2018-04-20T04:16:06.918Z,69.40
2018-04-20T04:18:47.026Z,70.10
2018-04-20T04:21:26.557Z,70.00
2018-04-20T04:24:06.075Z,70.40
2018-04-20T04:26:45.609Z,70.40
2018-04-20T04:29:13.129Z,70.60
2018-04-20T04:31:40.637Z,71.10
2018-04-20T04:34:08.157Z,73.00
2018-04-20T04:36:36.423Z,71.70
2018-04-20T04:39:03.941Z,71.70
2018-04-20T04:41:31.465Z,72.60
2018-04-20T04:43:59.737Z,71.80
2018-04-20T04:46:28.018Z,71.90
2018-04-20T04:48:55.550Z,71.90
2018-04-20T04:51:23.045Z,71.60
2018-04-20T04:53:50.557Z,71.40
2018-04-20T04:56:18.076Z,71.00
2018-04-20T04:58:45.582Z,70.80
2018-04-20T05:01:13.093Z,70.80
2018-04-20T05:03:40.621Z,71.00
2018-04-20T05:06:08.901Z,71.60
2018-04-20T05:08:37.206Z,71.30
2018-04-20T05:11:04.744Z,71.30
2018-04-20T05:13:33.087Z,71.20
2018-04-20T05:16:00.589Z,71.10
2018-04-20T05:18:28.094Z,70.80
2018-04-20T05:20:55.618Z,71.70
2018-04-20T05:23:23.126Z,71.90
2018-04-20T05:25:50.626Z,72.10
2018-04-20T05:28:18.129Z,72.90
2018-04-20T05:30:45.643Z,73.30
2018-04-20T05:33:13.163Z,73.50
2018-04-20T05:35:40.673Z,73.30
2018-04-20T05:38:08.189Z,73.70
2018-04-20T05:40:36.552Z,74.00
2018-04-20T05:43:04.037Z,73.80
2018-04-20T05:45:32.305Z,73.70
2018-04-20T05:48:00.603Z,73.80
2018-04-20T05:50:28.111Z,73.70
2018-04-20T05:52:55.631Z,73.70
2018-04-20T05:55:23.161Z,73.50
2018-04-20T05:57:51.431Z,74.20
2018-04-20T06:00:19.757Z,74.50
2018-04-20T06:02:47.262Z,74.00
2018-04-20T06:05:15.741Z,73.80
2018-04-20T06:07:43.258Z,73.80
2018-04-20T06:10:10.977Z,73.60
2018-04-20T06:12:45.770Z,73.40
2018-04-20T06:15:13.290Z,73.30
2018-04-20T06:17:40.809Z,73.80
2018-04-20T06:20:08.319Z,74.00
2018-04-20T06:22:35.822Z,74.20
2018-04-20T06:25:03.389Z,74.10
2018-04-20T06:27:30.857Z,74.60
2018-04-20T06:29:59.174Z,74.60
2018-04-20T06:32:26.683Z,74.50
2018-04-20T06:34:54.288Z,73.30
2018-04-20T06:37:21.785Z,73.00
2018-04-20T06:39:49.291Z,72.90
2018-04-20T06:42:16.816Z,72.50
2018-04-20T06:44:44.310Z,73.10
2018-04-20T06:47:11.825Z,72.50
2018-04-20T06:49:40.849Z,72.20
2018-04-20T06:52:09.122Z,71.20
2018-04-20T06:54:37.406Z,69.60
2018-04-20T06:57:04.913Z,69.50
2018-04-20T06:59:32.438Z,69.10
2018-04-20T07:01:59.958Z,68.20
2018-04-20T07:04:27.466Z,67.70
2018-04-20T07:06:54.998Z,66.80
2018-04-20T07:09:23.282Z,66.50
2018-04-20T07:11:50.788Z,66.50
2018-04-20T07:14:18.315Z,66.50
2018-04-20T07:16:45.833Z,65.20
2018-04-20T07:19:14.103Z,66.00
2018-04-20T07:21:42.391Z,65.10
2018-04-20T07:24:10.703Z,64.50
2018-04-20T07:26:38.215Z,64.40
2018-04-20T07:29:06.481Z,64.50
2018-04-20T07:31:33.997Z,64.80
2018-04-20T07:34:01.521Z,65.10
2018-04-20T07:36:29.800Z,62.70
2018-04-20T07:38:58.083Z,62.20
2018-04-20T07:41:26.361Z,61.80
2018-04-20T07:43:53.934Z,61.80
2018-04-20T07:46:21.450Z,61.70
2018-04-20T07:48:48.976Z,63.00
2018-04-20T07:51:16.490Z,62.50
2018-04-20T07:53:44.773Z,62.30
2018-04-20T07:56:13.058Z,61.10
2018-04-20T07:58:40.569Z,61.10
2018-04-20T08:01:08.092Z,61.20
2018-04-20T08:03:35.621Z,60.80
2018-04-20T08:06:03.905Z,60.30
2018-04-20T08:08:32.176Z,60.30
2018-04-20T08:11:00.442Z,59.90
2018-04-20T08:13:28.710Z,59.50
2018-04-20T08:15:56.986Z,60.00
2018-04-20T08:18:25.269Z,60.70
2018-04-20T08:20:53.542Z,60.60
2018-04-20T08:23:21.825Z,61.80
2018-04-20T08:25:50.114Z,62.60
2018-04-20T08:28:18.385Z,61.50
2018-04-20T08:30:46.653Z,61.60
2018-04-20T08:33:14.948Z,61.30
2018-04-20T08:35:42.457Z,61.20
2018-04-20T08:38:09.963Z,61.20
2018-04-20T08:40:38.234Z,58.90
2018-04-20T08:43:06.502Z,59.70
2018-04-20T08:45:34.785Z,58.00
2018-04-20T08:48:03.063Z,58.00
2018-04-20T08:50:31.333Z,57.10
2018-04-20T08:52:59.631Z,58.30
2018-04-20T08:55:27.129Z,58.30
2018-04-20T08:57:54.637Z,58.70
2018-04-20T09:00:22.906Z,57.60
2018-04-20T09:02:51.189Z,56.70
2018-04-20T09:05:19.472Z,56.90
2018-04-20T09:07:47.737Z,56.70
2018-04-20T09:10:16.002Z,57.10
2018-04-20T09:12:43.508Z,57.10
2018-04-20T09:15:11.022Z,56.60
2018-04-20T09:17:39.290Z,56.50
2018-04-20T09:20:07.587Z,56.80
2018-04-20T09:22:35.849Z,56.70
2018-04-20T09:25:04.130Z,56.80
2018-04-20T09:27:32.401Z,57.50
2018-04-20T09:29:59.923Z,57.50
2018-04-20T09:32:27.435Z,55.90
2018-04-20T09:34:54.958Z,54.90
2018-04-20T09:37:22.451Z,55.10
2018-04-20T09:39:50.974Z,56.10
2018-04-20T09:42:18.474Z,56.10
2018-04-20T09:44:46.742Z,54.00
2018-04-20T09:47:14.338Z,53.70
2018-04-20T09:49:41.833Z,53.40
2018-04-20T09:52:09.343Z,53.50
2018-04-20T09:54:37.659Z,53.80
2018-04-20T09:57:05.124Z,53.80
2018-04-20T09:59:32.621Z,50.80
2018-04-20T10:02:00.116Z,50.80
2018-04-20T10:04:30.400Z,51.00
2018-04-20T10:06:57.901Z,50.90
2018-04-20T10:09:25.402Z,50.20
2018-04-20T10:11:52.910Z,52.80
2018-04-20T10:14:20.413Z,51.90
2018-04-20T10:16:47.909Z,50.00
2018-04-20T10:19:16.193Z,49.20
2018-04-20T10:21:46.099Z,49.20
2018-04-20T10:24:14.377Z,50.30
2018-04-20T10:26:42.647Z,49.40
2018-04-20T10:29:10.901Z,48.60
2018-04-20T10:31:39.205Z,50.20
2018-04-20T10:34:07.490Z,47.10
2018-04-20T10:36:35.789Z,48.50
2018-04-20T10:39:03.280Z,48.40
2018-04-20T10:41:30.804Z,46.70
2018-04-20T10:43:58.298Z,43.50
2018-04-20T10:46:25.806Z,48.00
2018-04-20T10:48:53.350Z,48.50
2018-04-20T10:51:21.606Z,46.90
2018-04-20T10:53:49.109Z,46.80
2018-04-20T10:56:16.598Z,46.60
2018-04-20T10:58:44.089Z,43.50
2018-04-20T11:01:11.601Z,43.90
2018-04-20T11:03:39.136Z,44.20
2018-04-20T11:06:07.373Z,44.90
2018-04-20T11:08:34.886Z,45.40
2018-04-20T11:11:02.406Z,42.50
2018-04-20T11:13:30.679Z,41.40
2018-04-20T11:15:58.938Z,42.20
2018-04-20T11:18:27.204Z,43.50
2018-04-20T11:20:54.695Z,43.50
2018-04-20T11:23:22.951Z,44.10
2018-04-20T11:25:52.568Z,44.10
2018-04-20T11:28:20.057Z,41.50
2018-04-20T11:30:47.571Z,40.70
2018-04-20T11:33:15.067Z,41.20
2018-04-20T11:35:42.585Z,39.70
2018-04-20T11:38:10.081Z,38.40
2018-04-20T11:40:38.346Z,39.40
2018-04-20T11:43:06.652Z,37.10
2018-04-20T11:45:34.194Z,37.10
2018-04-20T11:48:01.697Z,39.50
2018-04-20T11:50:29.221Z,38.80
2018-04-20T11:52:56.736Z,40.20
2018-04-20T11:55:24.227Z,39.20
2018-04-20T11:57:52.494Z,38.10
2018-04-20T12:00:20.778Z,39.70
2018-04-20T12:02:48.285Z,39.60
2018-04-20T12:05:15.779Z,36.70
2018-04-20T12:07:44.057Z,36.50
2018-04-20T12:10:12.334Z,37.20
2018-04-20T12:12:40.598Z,37.90
2018-04-20T12:15:08.212Z,37.90
2018-04-20T12:17:35.870Z,37.20
2018-04-20T12:20:03.431Z,38.30
2018-04-20T12:22:30.926Z,36.50
2018-04-20T12:24:58.434Z,36.50
2018-04-20T12:27:25.985Z,39.20
2018-04-20T12:29:53.459Z,36.70
2018-04-20T12:32:20.971Z,34.80
2018-04-20T12:34:48.466Z,34.80
2018-04-20T12:37:15.975Z,35.00
2018-04-20T12:39:43.486Z,35.20
2018-04-20T12:42:10.985Z,33.40
2018-04-20T12:44:38.486Z,33.70
2018-04-20T12:47:06.749Z,33.30
2018-04-20T12:49:35.022Z,34.60
2018-04-20T12:52:02.544Z,34.20
2018-04-20T12:54:30.050Z,32.30
2018-04-20T12:56:58.329Z,33.90
2018-04-20T12:59:26.637Z,32.50
2018-04-20T13:01:54.153Z,32.50
2018-04-20T13:04:22.430Z,31.30
2018-04-20T13:06:49.953Z,31.30
2018-04-20T13:09:17.450Z,31.30
2018-04-20T13:11:44.946Z,30.90
2018-04-20T13:14:12.457Z,28.40
2018-04-20T13:16:39.966Z,26.40
2018-04-20T13:19:07.458Z,26.60
2018-04-20T13:21:34.949Z,25.90
2018-04-20T13:24:03.225Z,26.20
2018-04-20T13:26:31.491Z,25.80
2018-04-20T13:28:59.761Z,25.90
2018-04-20T13:31:27.270Z,26.00
2018-04-20T13:33:54.798Z,26.00
2018-04-20T13:36:23.053Z,25.40
2018-04-20T13:38:50.664Z,25.30
2018-04-20T13:41:18.153Z,26.50
2018-04-20T13:43:45.647Z,26.50
2018-04-20T13:46:13.920Z,27.20
2018-04-20T13:48:42.177Z,27.00
2018-04-20T13:51:09.674Z,26.90
2018-04-20T13:53:37.182Z,26.50
2018-04-20T13:56:04.675Z,27.00
2018-04-20T13:58:32.939Z,26.80
2018-04-20T14:01:00.430Z,26.80
2018-04-20T14:03:27.924Z,26.20
2018-04-20T14:05:55.434Z,26.40
2018-04-20T14:08:23.695Z,25.10
2018-04-20T14:10:51.958Z,24.00
2018-04-20T14:13:19.458Z,23.90
2018-04-20T14:15:46.993Z,24.80
2018-04-20T14:18:15.250Z,24.20
2018-04-20T14:20:42.758Z,24.10
2018-04-20T14:23:10.277Z,25.80
2018-04-20T14:25:37.767Z,24.90
2018-04-20T14:28:05.269Z,22.20
2018-04-20T14:30:32.770Z,23.70
2018-04-20T14:33:01.038Z,23.30
2018-04-20T14:35:29.318Z,22.20
2018-04-20T14:37:57.576Z,22.20
2018-04-20T14:40:25.903Z,23.20
2018-04-20T14:42:53.403Z,22.90
2018-04-20T14:45:20.914Z,22.20
2018-04-20T14:47:48.425Z,22.80
2018-04-20T14:50:15.936Z,23.90
2018-04-20T14:52:43.450Z,23.30
2018-04-20T14:55:11.023Z,23.40
2018-04-20T14:57:39.400Z,22.50
2018-04-20T15:00:06.925Z,22.40
2018-04-20T15:02:34.429Z,21.40
2018-04-20T15:05:02.702Z,21.80
2018-04-20T15:07:30.986Z,20.90
2018-04-20T15:09:58.494Z,20.90
2018-04-20T15:12:26.013Z,20.70
2018-04-20T15:14:53.533Z,20.90
2018-04-20T15:17:22.534Z,20.70
2018-04-20T15:19:51.185Z,20.10
2018-04-20T15:22:18.685Z,19.60
2018-04-20T15:24:46.966Z,20.20
2018-04-20T15:27:14.579Z,20.20
2018-04-20T15:29:42.114Z,19.80
2018-04-20T15:32:09.621Z,19.30
2018-04-20T15:34:37.125Z,20.50
2018-04-20T15:37:04.626Z,20.10
2018-04-20T15:39:32.135Z,21.20
2018-04-20T15:41:59.634Z,20.40
2018-04-20T15:44:27.139Z,20.50
2018-04-20T15:46:55.402Z,20.40
2018-04-20T15:49:23.717Z,20.60
2018-04-20T15:51:51.219Z,20.50
2018-04-20T15:54:18.727Z,20.50
2018-04-20T15:56:46.262Z,20.50
2018-04-20T15:59:14.531Z,21.40
2018-04-20T16:01:42.929Z,20.50
2018-04-20T16:04:11.341Z,20.50
2018-04-20T16:06:38.832Z,21.40
2018-04-20T16:09:06.326Z,21.10
2018-04-20T16:11:33.841Z,20.80
2018-04-20T16:14:01.331Z,20.40
2018-04-20T16:16:29.686Z,20.40
2018-04-20T16:18:57.196Z,20.40
2018-04-20T16:21:24.702Z,20.70
2018-04-20T16:23:52.957Z,22.00
2018-04-20T16:26:20.458Z,22.10
2018-04-20T16:28:48.737Z,21.90
2018-04-20T16:31:16.998Z,22.80
2018-04-20T16:33:44.491Z,22.80
2018-04-20T16:36:11.990Z,23.50
2018-04-20T16:38:39.494Z,24.60
2018-04-20T16:41:07.753Z,25.60
2018-04-20T16:43:36.013Z,25.90
2018-04-20T16:46:03.509Z,25.90
2018-04-20T16:48:31.064Z,27.30
2018-04-20T16:50:59.339Z,27.80
2018-04-20T16:53:27.591Z,28.50
2018-04-20T16:55:55.869Z,29.00
2018-04-20T16:58:23.379Z,29.00
2018-04-20T17:00:50.875Z,28.70
2018-04-20T17:03:18.391Z,29.20
2018-04-20T17:05:45.886Z,29.60
2018-04-20T17:08:13.394Z,30.20
2018-04-20T17:10:40.886Z,29.90
2018-04-20T17:13:08.388Z,30.50
2018-04-20T17:15:36.666Z,31.10
2018-04-20T17:18:04.950Z,31.60
2018-04-20T17:20:33.201Z,33.10
2018-04-20T17:23:00.694Z,33.00
2018-04-20T17:25:28.191Z,33.80
2018-04-20T17:27:55.683Z,34.30
2018-04-20T17:30:23.953Z,35.70
2018-04-20T17:32:51.484Z,36.30
2018-04-20T17:35:18.966Z,36.90
2018-04-20T17:37:46.454Z,37.30
2018-04-20T17:40:14.709Z,38.90
2018-04-20T17:42:42.314Z,38.20
2018-04-20T17:45:09.822Z,39.10
2018-04-20T17:47:37.369Z,38.90
2018-04-20T17:50:04.891Z,39.20
2018-04-20T17:52:32.402Z,39.60
2018-04-20T17:54:59.898Z,40.00
2018-04-20T17:57:27.402Z,40.00
2018-04-20T17:59:54.897Z,40.20
2018-04-20T18:02:23.171Z,40.40
2018-04-20T18:04:51.443Z,40.70
2018-04-20T18:07:19.705Z,40.70
2018-04-20T18:09:47.965Z,40.70
2018-04-20T18:12:15.479Z,40.70
2018-04-20T18:14:42.973Z,40.80
2018-04-20T18:17:10.471Z,41.30
2018-04-20T18:19:37.978Z,41.00
2018-04-20T18:22:05.470Z,40.90
2018-04-20T18:24:33.067Z,41.10
2018-04-20T18:27:00.526Z,41.30
2018-04-20T18:29:28.026Z,41.40
2018-04-20T18:31:55.522Z,41.50
2018-04-20T18:34:23.816Z,42.00
2018-04-20T18:36:51.314Z,42.00
2018-04-20T18:39:18.832Z,42.40
2018-04-20T18:41:46.321Z,42.70
2018-04-20T18:44:13.825Z,42.90
2018-04-20T18:46:41.319Z,43.00
2018-04-20T18:49:08.824Z,42.90
2018-04-20T18:51:36.330Z,43.10
2018-04-20T18:54:03.821Z,43.30
2018-04-20T18:56:31.314Z,43.30
2018-04-20T18:58:58.810Z,43.60
2018-04-20T19:01:26.301Z,43.90
2018-04-20T19:03:53.802Z,44.20
2018-04-20T19:06:22.083Z,44.40
2018-04-20T19:08:50.355Z,44.40
2018-04-20T19:11:18.614Z,44.40
2018-04-20T19:13:46.224Z,44.40
2018-04-20T19:16:13.718Z,44.50
2018-04-20T19:18:42.130Z,44.20
2018-04-20T19:21:10.395Z,44.90
2018-04-20T19:23:37.892Z,44.20
2018-04-20T19:26:05.400Z,44.20
2018-04-20T19:28:34.446Z,45.00
2018-04-20T19:31:01.943Z,45.00
2018-04-20T19:33:29.447Z,45.50
2018-04-20T19:35:56.949Z,45.70
2018-04-20T19:38:24.452Z,45.90
2018-04-20T19:40:52.710Z,46.40
2018-04-20T19:43:20.201Z,46.40
2018-04-20T19:45:47.698Z,46.60
2018-04-20T19:48:15.194Z,46.80
2018-04-20T19:50:43.465Z,47.00
2018-04-20T19:53:11.724Z,47.50
2018-04-20T19:55:40.723Z,47.40
2018-04-20T19:58:09.732Z,47.60
2018-04-20T20:00:37.989Z,47.20
2018-04-20T20:03:05.477Z,47.10
2018-04-20T20:05:33.749Z,47.20
2018-04-20T20:08:02.012Z,47.10
2018-04-20T20:10:29.516Z,47.00
2018-04-20T20:12:57.005Z,48.10
2018-04-20T20:15:24.529Z,47.40
2018-04-20T20:17:52.018Z,47.60
2018-04-20T20:20:19.510Z,47.90
2018-04-20T20:22:47.779Z,48.00
2018-04-20T20:25:16.777Z,48.30
2018-04-20T20:27:45.061Z,48.40
2018-04-20T20:30:13.317Z,48.10
2018-04-20T20:32:42.334Z,48.10
2018-04-20T20:35:10.609Z,47.70
2018-04-20T20:37:38.881Z,47.60
2018-04-20T20:40:07.165Z,47.70
2018-04-20T20:42:35.426Z,48.10
2018-04-20T20:45:02.924Z,48.10
2018-04-20T20:47:30.429Z,48.30
2018-04-20T20:49:57.962Z,48.60
2018-04-20T20:52:25.469Z,48.90
2018-04-20T20:54:53.747Z,49.40
2018-04-20T20:57:22.013Z,49.50
2018-04-20T20:59:50.278Z,49.50
2018-04-20T21:02:19.272Z,49.60
2018-04-20T21:04:46.779Z,49.60
2018-04-20T21:07:14.313Z,49.90
2018-04-20T21:09:42.573Z,49.90
2018-04-20T21:12:10.084Z,49.90
2018-04-20T21:14:37.578Z,50.30
2018-04-20T21:17:05.077Z,50.50
2018-04-20T21:19:32.587Z,50.70
2018-04-20T21:22:00.077Z,50.70
2018-04-20T21:24:28.345Z,51.50
2018-04-20T21:26:56.663Z,51.30
2018-04-20T21:29:24.159Z,51.30
2018-04-20T21:31:51.662Z,51.70
2018-04-20T21:34:19.157Z,51.90
2018-04-20T21:36:46.652Z,51.70
2018-04-20T21:39:14.933Z,52.00
2018-04-20T21:41:43.217Z,52.20
2018-04-20T21:44:11.482Z,52.40
2018-04-20T21:46:39.741Z,52.80
2018-04-20T21:49:08.021Z,52.90
2018-04-20T21:51:35.543Z,52.90
2018-04-20T21:54:03.049Z,52.80
2018-04-20T21:56:31.318Z,52.60
2018-04-20T21:58:58.814Z,52.50
2018-04-20T22:01:26.318Z,53.00
2018-04-20T22:03:53.821Z,53.40
2018-04-20T22:06:22.225Z,53.70
2018-04-20T22:08:49.717Z,53.70
2018-04-20T22:11:17.218Z,53.90
2018-04-20T22:13:45.519Z,54.00
2018-04-20T22:16:13.050Z,53.90
2018-04-20T22:18:41.339Z,54.00
2018-04-20T22:21:08.846Z,54.00
2018-04-20T22:23:36.352Z,54.10
2018-04-20T22:26:03.853Z,54.20
2018-04-20T22:28:31.351Z,53.90
2018-04-20T22:30:59.626Z,54.00
2018-04-20T22:33:27.900Z,54.00
2018-04-20T22:35:56.161Z,54.10
2018-04-20T22:38:23.749Z,54.10
2018-04-20T22:40:52.110Z,54.60
2018-04-20T22:43:19.622Z,54.60
2018-04-20T22:45:47.134Z,55.40
2018-04-20T22:48:15.397Z,54.70
2018-04-20T22:50:42.902Z,54.60
2018-04-20T22:53:10.410Z,54.50
2018-04-20T22:55:37.909Z,54.70
2018-04-20T22:58:05.439Z,55.00
2018-04-20T23:00:33.701Z,54.40
2018-04-20T23:03:01.212Z,54.40
2018-04-20T23:05:28.705Z,53.90
2018-04-20T23:07:56.235Z,54.10
2018-04-20T23:10:23.750Z,54.30
2018-04-20T23:12:51.250Z,54.70
2018-04-20T23:15:18.765Z,54.90
2018-04-20T23:17:46.261Z,55.10
2018-04-20T23:20:13.782Z,56.00
2018-04-20T23:22:42.058Z,55.50
2018-04-20T23:25:10.349Z,55.50
2018-04-20T23:27:38.606Z,55.70
2018-04-20T23:30:06.105Z,55.70
2018-04-20T23:32:33.602Z,55.80
2018-04-20T23:35:01.100Z,55.90
2018-04-20T23:37:29.373Z,56.00
2018-04-20T23:39:57.649Z,56.00
2018-04-20T23:42:25.935Z,56.20
2018-04-20T23:44:54.198Z,56.40
2018-04-20T23:47:22.467Z,56.60
2018-04-20T23:49:49.967Z,56.60
2018-04-20T23:52:17.477Z,56.70
2018-04-20T23:54:44.976Z,56.70
2018-04-20T23:57:12.489Z,56.60
2018-04-20T23:59:39.990Z,56.70
